createdAt,value
2022-08-22T00:00:30.296Z,91.85
2022-08-22T00:03:40.182Z,91.71
2022-08-22T00:06:40.204Z,92.00
2022-08-22T00:09:35.478Z,92.31
2022-08-22T00:12:29.755Z,92.00
2022-08-22T00:15:02.307Z,92.39
2022-08-22T00:17:35.281Z,92.12
2022-08-22T00:20:17.241Z,92.16
2022-08-22T00:23:02.417Z,91.76
2022-08-22T00:25:47.285Z,91.64
2022-08-22T00:28:18.380Z,92.13
2022-08-22T00:31:08.238Z,91.94
2022-08-22T00:34:03.409Z,91.66
2022-08-22T00:36:43.620Z,91.46
2022-08-22T00:39:16.566Z,91.30
2022-08-22T00:42:01.803Z,91.48
2022-08-22T00:44:34.267Z,91.74
2022-08-22T00:47:17.499Z,91.60
2022-08-22T00:49:56.099Z,91.55
2022-08-22T00:52:47.661Z,91.69
2022-08-22T00:55:28.174Z,91.32
2022-08-22T00:58:15.463Z,90.86
2022-08-22T01:00:53.061Z,90.32
2022-08-22T01:03:38.472Z,90.64
2022-08-22T01:06:14.223Z,90.23
2022-08-22T01:08:56.897Z,90.39
2022-08-22T01:11:44.869Z,89.94
2022-08-22T01:14:40.894Z,89.83
2022-08-22T01:17:33.742Z,89.70
2022-08-22T01:20:22.167Z,89.85
2022-08-22T01:23:10.039Z,90.26
2022-08-22T01:25:49.491Z,90.03
2022-08-22T01:28:42.406Z,90.57
2022-08-22T01:31:28.120Z,90.17
2022-08-22T01:34:05.785Z,90.35
2022-08-22T01:37:10.022Z,90.23
2022-08-22T01:39:51.809Z,89.95
2022-08-22T01:42:22.717Z,90.29
2022-08-22T01:45:07.928Z,89.98
2022-08-22T01:47:43.547Z,90.10
2022-08-22T01:50:18.655Z,89.40
2022-08-22T01:53:09.497Z,89.51
2022-08-22T01:55:45.899Z,89.46
2022-08-22T01:58:21.327Z,89.38
2022-08-22T02:01:18.294Z,89.70
2022-08-22T02:03:51.368Z,89.53
2022-08-22T02:06:22.890Z,89.52
2022-08-22T02:08:57.038Z,89.79
2022-08-22T02:11:48.885Z,89.60
2022-08-22T02:14:31.657Z,89.61
2022-08-22T02:17:20.440Z,90.02
2022-08-22T02:19:57.098Z,90.02
2022-08-22T02:22:31.903Z,90.29
2022-08-22T02:25:12.555Z,90.31
2022-08-22T02:27:52.449Z,90.12
2022-08-22T02:30:39.178Z,90.25
2022-08-22T02:33:09.035Z,90.16
2022-08-22T02:35:38.641Z,90.40
2022-08-22T02:38:13.344Z,90.89
2022-08-22T02:41:02.116Z,90.73
2022-08-22T02:43:49.690Z,90.89
2022-08-22T02:46:54.893Z,90.83
2022-08-22T02:49:36.608Z,90.99
2022-08-22T02:52:15.435Z,91.46
2022-08-22T02:55:02.150Z,91.18
2022-08-22T02:58:24.786Z,91.61
2022-08-22T03:00:58.620Z,91.35
2022-08-22T03:03:27.492Z,91.63
2022-08-22T03:06:01.022Z,91.75
2022-08-22T03:08:31.950Z,92.08
2022-08-22T03:11:04.513Z,92.16
2022-08-22T03:13:49.906Z,91.63
2022-08-22T03:16:38.688Z,91.70
2022-08-22T03:19:18.729Z,91.71
2022-08-22T03:21:51.692Z,91.97
2022-08-22T03:24:36.995Z,91.91
2022-08-22T03:27:09.572Z,92.21
2022-08-22T03:29:43.454Z,91.93
2022-08-22T03:32:14.304Z,91.97
2022-08-22T03:35:04.282Z,91.99
2022-08-22T03:37:43.370Z,92.08
2022-08-22T03:40:31.542Z,91.85
2022-08-22T03:43:26.237Z,91.85
2022-08-22T03:46:17.835Z,91.96
2022-08-22T03:49:22.687Z,91.93
2022-08-22T03:52:07.526Z,92.19
2022-08-22T03:55:06.649Z,92.20
2022-08-22T03:57:36.387Z,92.19
2022-08-22T04:00:21.685Z,91.98
2022-08-22T04:02:52.545Z,92.03
2022-08-22T04:05:56.787Z,91.94
2022-08-22T04:09:04.268Z,92.33
2022-08-22T04:11:53.582Z,92.25
2022-08-22T04:14:47.631Z,92.45
2022-08-22T04:17:17.144Z,91.94
2022-08-22T04:20:11.121Z,91.67
2022-08-22T04:22:49.694Z,91.81
2022-08-22T04:25:25.664Z,91.48
2022-08-22T04:28:05.019Z,90.92
2022-08-22T04:30:46.762Z,90.82
2022-08-22T04:33:15.292Z,90.96
2022-08-22T04:35:45.780Z,90.61
2022-08-22T04:38:21.829Z,90.91
2022-08-22T04:40:55.497Z,90.58
2022-08-22T04:43:41.786Z,90.68
2022-08-22T04:46:23.055Z,90.34
2022-08-22T04:49:08.187Z,90.05
2022-08-22T04:52:17.162Z,89.83
2022-08-22T04:55:08.398Z,89.37
2022-08-22T04:57:56.223Z,89.46
2022-08-22T05:00:22.920Z,88.89
2022-08-22T05:02:51.870Z,88.92
2022-08-22T05:05:27.064Z,88.87
2022-08-22T05:07:58.940Z,88.88
2022-08-22T05:10:40.014Z,88.49
2022-08-22T05:13:08.606Z,88.71
2022-08-22T05:15:42.215Z,88.70
2022-08-22T05:18:12.464Z,88.43
2022-08-22T05:20:39.155Z,88.66
2022-08-22T05:23:17.953Z,88.97
2022-08-22T05:25:45.208Z,88.78
2022-08-22T05:28:34.319Z,88.69
2022-08-22T05:31:04.438Z,89.03
2022-08-22T05:33:37.099Z,88.94
2022-08-22T05:36:12.473Z,89.42
2022-08-22T05:38:54.793Z,89.11
2022-08-22T05:41:25.177Z,88.94
2022-08-22T05:43:51.983Z,89.15
2022-08-22T05:46:39.691Z,89.01
2022-08-22T05:49:06.608Z,89.19
2022-08-22T05:51:49.738Z,89.25
2022-08-22T05:54:20.090Z,89.44
2022-08-22T05:57:14.342Z,89.17
2022-08-22T05:59:41.805Z,89.24
2022-08-22T06:02:10.045Z,88.93
2022-08-22T06:04:51.329Z,89.04
2022-08-22T06:07:47.700Z,89.21
2022-08-22T06:10:27.325Z,88.92
2022-08-22T06:13:11.731Z,89.23
2022-08-22T06:15:48.474Z,89.50
2022-08-22T06:18:17.142Z,89.09
2022-08-22T06:20:48.686Z,89.25
2022-08-22T06:23:17.352Z,89.23
2022-08-22T06:25:46.893Z,89.56
2022-08-22T06:28:16.891Z,88.84
2022-08-22T06:30:45.537Z,88.79
2022-08-22T06:33:14.002Z,88.79
2022-08-22T06:36:04.969Z,89.01
2022-08-22T06:38:33.645Z,89.25
2022-08-22T06:41:06.830Z,89.42
2022-08-22T06:43:38.116Z,88.52
2022-08-22T06:46:06.162Z,88.06
2022-08-22T06:48:32.839Z,86.98
2022-08-22T06:50:59.455Z,87.22
2022-08-22T06:53:38.413Z,86.35
2022-08-22T06:56:13.220Z,86.27
2022-08-22T06:58:45.139Z,86.11
2022-08-22T07:01:23.205Z,85.85
2022-08-22T07:03:51.247Z,85.99
2022-08-22T07:06:21.640Z,85.87
2022-08-22T07:08:52.851Z,85.84
2022-08-22T07:11:28.038Z,85.99
2022-08-22T07:14:00.618Z,85.99
2022-08-22T07:16:35.409Z,86.20
2022-08-22T07:19:02.058Z,86.50
2022-08-22T07:21:31.015Z,86.70
2022-08-22T07:24:01.392Z,86.40
2022-08-22T07:26:29.778Z,86.09
2022-08-22T07:29:11.427Z,85.98
2022-08-22T07:31:43.034Z,86.01
2022-08-22T07:34:26.105Z,86.08
2022-08-22T07:37:00.298Z,85.79
2022-08-22T07:39:36.016Z,85.97
2022-08-22T07:42:28.568Z,84.47
2022-08-22T07:45:00.135Z,85.09
2022-08-22T07:47:34.328Z,85.22
2022-08-22T07:50:07.050Z,85.04
2022-08-22T07:52:40.849Z,84.45
2022-08-22T07:55:18.375Z,84.91
2022-08-22T07:57:47.707Z,84.39
2022-08-22T08:00:16.939Z,84.28
2022-08-22T08:02:51.190Z,84.42
2022-08-22T08:05:17.817Z,83.39
2022-08-22T08:07:45.446Z,82.86
2022-08-22T08:10:35.460Z,82.94
2022-08-22T08:13:05.586Z,82.33
2022-08-22T08:15:40.290Z,81.65
2022-08-22T08:18:11.314Z,81.27
2022-08-22T08:20:37.923Z,80.25
2022-08-22T08:23:07.101Z,80.06
2022-08-22T08:25:37.301Z,79.67
2022-08-22T08:28:22.672Z,79.65
2022-08-22T08:31:10.461Z,79.84
2022-08-22T08:33:38.965Z,79.64
2022-08-22T08:36:20.817Z,79.46
2022-08-22T08:38:51.792Z,78.95
2022-08-22T08:41:49.045Z,79.03
2022-08-22T08:44:49.586Z,79.30
2022-08-22T08:47:34.319Z,79.08
2022-08-22T08:50:29.204Z,79.65
2022-08-22T08:52:58.848Z,80.04
2022-08-22T08:56:11.323Z,80.54
2022-08-22T08:58:41.340Z,80.72
2022-08-22T09:04:39.338Z,80.26
2022-08-22T09:07:21.621Z,79.87
2022-08-22T09:10:11.143Z,79.05
2022-08-22T09:13:20.419Z,78.21
2022-08-22T09:16:04.916Z,78.27
2022-08-22T09:18:32.161Z,78.80
2022-08-22T09:21:30.542Z,79.19
2022-08-22T09:24:16.311Z,78.87
2022-08-22T09:26:49.930Z,78.71
2022-08-22T09:32:47.467Z,78.97
2022-08-22T09:35:51.594Z,78.71
2022-08-22T09:38:26.215Z,77.87
2022-08-22T09:40:15.633Z,78.88
2022-08-22T09:40:16.168Z,80.06
2022-08-22T09:41:00.542Z,78.02
2022-08-22T09:43:38.927Z,77.87
2022-08-22T09:46:29.549Z,77.94
2022-08-22T09:49:10.216Z,78.17
2022-08-22T09:51:45.510Z,78.73
2022-08-22T09:54:31.669Z,78.89
2022-08-22T09:57:22.479Z,79.45
2022-08-22T10:00:09.559Z,79.79
2022-08-22T10:02:49.677Z,79.53
2022-08-22T10:05:39.487Z,79.81
2022-08-22T10:08:45.818Z,80.05
2022-08-22T10:11:22.984Z,79.85
2022-08-22T10:13:56.580Z,79.52
2022-08-22T10:16:58.183Z,79.24
2022-08-22T10:19:45.940Z,79.30
2022-08-22T10:22:50.193Z,77.93
2022-08-22T10:25:50.233Z,77.29
2022-08-22T10:28:28.494Z,77.77
2022-08-22T10:31:06.539Z,76.87
2022-08-22T10:33:47.500Z,76.02
2022-08-22T10:36:23.718Z,76.31
2022-08-22T10:38:54.752Z,75.13
2022-08-22T10:41:39.540Z,73.79
2022-08-22T10:44:14.838Z,72.93
2022-08-22T10:46:46.218Z,73.33
2022-08-22T10:49:28.394Z,73.12
2022-08-22T10:52:15.868Z,74.13
2022-08-22T10:55:21.493Z,74.75
2022-08-22T10:58:09.298Z,76.47
2022-08-22T11:00:51.248Z,75.61
2022-08-22T11:03:23.361Z,75.28
2022-08-22T11:05:54.872Z,75.34
2022-08-22T11:08:42.454Z,75.12
2022-08-22T11:11:20.889Z,73.70
2022-08-22T11:14:22.407Z,73.52
2022-08-22T11:16:55.293Z,73.25
2022-08-22T11:19:48.453Z,73.86
2022-08-22T11:22:28.762Z,72.67
2022-08-22T11:25:28.648Z,74.45
2022-08-22T11:28:33.405Z,73.60
2022-08-22T11:31:39.322Z,71.96
2022-08-22T11:34:26.098Z,73.14
2022-08-22T11:37:11.051Z,72.41
2022-08-22T11:39:43.216Z,72.73
2022-08-22T11:42:15.510Z,73.00
2022-08-22T11:44:55.338Z,73.06
2022-08-22T11:47:27.297Z,72.05
2022-08-22T11:50:22.224Z,71.05
2022-08-22T11:52:57.831Z,70.16
2022-08-22T11:55:34.483Z,69.84
2022-08-22T11:58:38.881Z,70.43
2022-08-22T12:01:20.295Z,71.17
2022-08-22T12:03:55.722Z,71.48
2022-08-22T12:06:56.324Z,72.05
2022-08-22T12:09:51.476Z,72.95
2022-08-22T12:12:27.850Z,73.66
2022-08-22T12:14:59.682Z,73.16
2022-08-22T12:17:51.180Z,73.97
2022-08-22T12:20:53.755Z,74.51
2022-08-22T12:23:49.786Z,74.54
2022-08-22T12:26:54.852Z,75.11
2022-08-22T12:29:45.021Z,75.20
2022-08-22T12:32:27.451Z,75.45
2022-08-22T12:35:13.831Z,75.80
2022-08-22T12:37:48.292Z,76.04
2022-08-22T12:40:56.806Z,76.16
2022-08-22T12:43:26.345Z,76.01
2022-08-22T12:46:28.289Z,75.24
2022-08-22T12:49:08.382Z,75.87
2022-08-22T12:51:59.835Z,76.35
2022-08-22T12:54:35.103Z,76.59
2022-08-22T12:57:26.987Z,76.02
2022-08-22T13:00:02.012Z,76.40
2022-08-22T13:02:31.691Z,76.87
2022-08-22T13:05:00.228Z,77.24
2022-08-22T13:07:31.791Z,76.97
2022-08-22T13:10:17.586Z,76.70
2022-08-22T13:12:46.730Z,76.99
2022-08-22T13:15:29.971Z,76.75
2022-08-22T13:18:04.898Z,76.88
2022-08-22T13:20:45.056Z,76.92
2022-08-22T13:23:23.930Z,77.22
2022-08-22T13:26:01.263Z,77.47
2022-08-22T13:28:28.801Z,77.18
2022-08-22T13:30:56.775Z,76.88
2022-08-22T13:33:26.668Z,76.54
2022-08-22T13:35:55.273Z,76.35
2022-08-22T13:38:33.533Z,76.00
2022-08-22T13:41:00.306Z,75.95
2022-08-22T13:43:52.867Z,76.78
2022-08-22T13:46:22.971Z,77.27
2022-08-22T13:48:52.495Z,76.58
2022-08-22T13:51:47.627Z,76.14
2022-08-22T13:54:40.234Z,76.09
2022-08-22T13:57:18.240Z,75.61
2022-08-22T14:00:01.538Z,75.80
2022-08-22T14:02:43.513Z,76.04
2022-08-22T14:05:12.588Z,76.22
2022-08-22T14:07:45.925Z,76.00
2022-08-22T14:10:25.588Z,75.10
2022-08-22T14:12:57.483Z,74.27
2022-08-22T14:15:45.046Z,74.29
2022-08-22T14:18:30.431Z,74.37
2022-08-22T14:21:16.523Z,75.31
2022-08-22T14:23:43.483Z,75.25
2022-08-22T14:26:10.213Z,75.69
2022-08-22T14:28:39.453Z,75.23
2022-08-22T14:31:13.433Z,75.50
2022-08-22T14:34:10.573Z,75.76
2022-08-22T14:36:53.309Z,76.41
2022-08-22T14:39:29.753Z,77.00
2022-08-22T14:42:06.055Z,77.25
2022-08-22T14:44:39.716Z,77.55
2022-08-22T14:47:15.872Z,77.92
2022-08-22T14:49:59.038Z,77.67
2022-08-22T14:52:30.810Z,77.30
2022-08-22T14:55:21.065Z,77.68
2022-08-22T14:57:52.296Z,78.45
2022-08-22T15:00:31.405Z,78.42
2022-08-22T15:03:12.459Z,78.58
2022-08-22T15:05:58.230Z,78.65
2022-08-22T15:08:36.669Z,78.57
2022-08-22T15:11:22.777Z,78.76
2022-08-22T15:13:56.940Z,78.93
2022-08-22T15:16:29.409Z,78.58
2022-08-22T15:18:56.215Z,78.23
2022-08-22T15:21:32.821Z,78.23
2022-08-22T15:24:04.046Z,78.43
2022-08-22T15:26:36.677Z,78.59
2022-08-22T15:29:22.709Z,79.11
2022-08-22T15:31:57.459Z,79.42
2022-08-22T15:34:52.320Z,79.30
2022-08-22T15:37:19.164Z,79.64
2022-08-22T15:40:02.756Z,80.12
2022-08-22T15:42:34.814Z,80.27
2022-08-22T15:45:01.674Z,79.93
2022-08-22T15:47:39.762Z,79.97
2022-08-22T15:50:30.989Z,79.84
2022-08-22T15:53:19.868Z,80.30
2022-08-22T15:56:05.116Z,80.24
2022-08-22T15:58:32.451Z,80.12
2022-08-22T16:01:12.612Z,80.44
2022-08-22T16:04:07.756Z,80.40
2022-08-22T16:06:46.809Z,80.66
2022-08-22T16:09:44.824Z,80.70
2022-08-22T16:12:24.260Z,80.58
2022-08-22T16:14:51.518Z,80.55
2022-08-22T16:17:30.370Z,80.81
2022-08-22T16:20:09.934Z,80.53
2022-08-22T16:22:58.477Z,80.92
2022-08-22T16:25:48.240Z,80.71
2022-08-22T16:28:56.195Z,80.92
2022-08-22T16:31:44.836Z,81.05
2022-08-22T16:34:17.742Z,81.44
2022-08-22T16:37:03.091Z,80.80
2022-08-22T16:39:48.545Z,80.39
2022-08-22T16:42:33.003Z,80.74
2022-08-22T16:45:05.475Z,80.65
2022-08-22T16:47:32.894Z,80.48
2022-08-22T16:50:34.583Z,81.01
2022-08-22T16:53:02.408Z,80.89
2022-08-22T16:55:28.913Z,80.74
2022-08-22T16:58:06.331Z,80.80
2022-08-22T17:00:36.889Z,80.77
2022-08-22T17:03:18.663Z,80.72
2022-08-22T17:05:59.953Z,81.16
2022-08-22T17:08:43.363Z,81.06
2022-08-22T17:11:25.466Z,81.23
2022-08-22T17:14:23.809Z,80.76
2022-08-22T17:17:04.100Z,80.76
2022-08-22T17:19:36.638Z,81.13
2022-08-22T17:22:28.884Z,81.12
2022-08-22T17:25:16.084Z,81.23
2022-08-22T17:27:44.109Z,81.01
2022-08-22T17:30:16.349Z,81.04
2022-08-22T17:33:13.479Z,81.48
2022-08-22T17:35:56.053Z,81.67
2022-08-22T17:38:45.357Z,81.53
2022-08-22T17:42:02.953Z,81.45
2022-08-22T17:44:41.766Z,81.83
2022-08-22T17:47:14.929Z,81.63
2022-08-22T17:49:41.752Z,81.79
2022-08-22T17:52:34.558Z,81.83
2022-08-22T17:55:56.571Z,82.35
2022-08-22T17:58:31.885Z,82.50
2022-08-22T18:01:35.935Z,82.89
2022-08-22T18:04:02.832Z,82.86
2022-08-22T18:06:31.030Z,83.44
2022-08-22T18:09:16.794Z,82.95
2022-08-22T18:12:03.784Z,83.39
2022-08-22T18:14:40.819Z,83.59
2022-08-22T18:17:21.936Z,83.73
2022-08-22T18:19:54.057Z,83.50
2022-08-22T18:22:23.789Z,83.62
2022-08-22T18:24:59.925Z,83.38
2022-08-22T18:27:47.354Z,84.01
2022-08-22T18:30:13.886Z,84.28
2022-08-22T18:32:43.224Z,84.05
2022-08-22T18:35:16.800Z,83.93
2022-08-22T18:37:58.378Z,84.20
2022-08-22T18:40:27.250Z,84.43
2022-08-22T18:43:05.861Z,84.74
2022-08-22T18:45:47.776Z,84.74
2022-08-22T18:48:20.389Z,84.82
2022-08-22T18:50:47.651Z,84.84
2022-08-22T18:53:54.040Z,85.32
2022-08-22T18:57:09.046Z,85.34
2022-08-22T18:59:54.065Z,85.57
2022-08-22T19:02:33.667Z,85.81
2022-08-22T19:05:54.402Z,86.02
2022-08-22T19:08:39.347Z,86.07
2022-08-22T19:11:23.073Z,86.26
2022-08-22T19:14:12.985Z,86.47
2022-08-22T19:16:45.518Z,86.31
2022-08-22T19:19:23.118Z,86.35
2022-08-22T19:22:21.922Z,86.39
2022-08-22T19:25:08.924Z,86.33
2022-08-22T19:27:44.652Z,85.97
2022-08-22T19:30:34.425Z,86.21
2022-08-22T19:33:18.106Z,86.14
2022-08-22T19:35:51.059Z,86.39
2022-08-22T19:38:56.751Z,86.09
2022-08-22T19:41:46.367Z,86.28
2022-08-22T19:44:37.789Z,86.11
2022-08-22T19:47:16.064Z,86.74
2022-08-22T19:49:54.949Z,86.51
2022-08-22T19:52:44.756Z,87.10
2022-08-22T19:55:20.299Z,86.82
2022-08-22T19:58:05.532Z,86.80
2022-08-22T20:00:51.485Z,86.88
2022-08-22T20:03:44.762Z,87.27
2022-08-22T20:06:42.571Z,87.27
2022-08-22T20:09:38.858Z,87.79
2022-08-22T20:12:15.860Z,88.26
2022-08-22T20:14:44.264Z,88.57
2022-08-22T20:17:33.980Z,88.47
2022-08-22T20:20:30.539Z,88.71
2022-08-22T20:23:30.242Z,88.94
2022-08-22T20:25:57.220Z,89.31
2022-08-22T20:28:34.196Z,89.31
2022-08-22T20:31:05.617Z,89.42
2022-08-22T20:33:46.066Z,89.67
2022-08-22T20:36:28.117Z,89.81
2022-08-22T20:39:06.106Z,90.51
2022-08-22T20:41:39.105Z,90.25
2022-08-22T20:44:12.621Z,90.50
2022-08-22T20:46:54.210Z,91.04
2022-08-22T20:49:31.473Z,91.29
2022-08-22T20:51:59.992Z,91.41
2022-08-22T20:54:31.771Z,91.82
2022-08-22T20:57:14.768Z,92.25
2022-08-22T20:59:43.616Z,92.56
2022-08-22T21:02:19.483Z,92.86
2022-08-22T21:05:28.561Z,92.69
2022-08-22T21:08:03.002Z,92.81
2022-08-22T21:10:49.080Z,92.90
2022-08-22T21:13:27.117Z,92.99
2022-08-22T21:15:59.416Z,92.48
2022-08-22T21:18:36.857Z,92.36
2022-08-22T21:21:09.812Z,92.55
2022-08-22T21:23:48.657Z,92.64
2022-08-22T21:26:38.795Z,92.54
2022-08-22T21:29:19.087Z,92.81
2022-08-22T21:32:18.549Z,92.83
2022-08-22T21:34:47.541Z,92.63
2022-08-22T21:37:20.343Z,92.49
2022-08-22T21:39:51.201Z,92.50
2022-08-22T21:42:27.160Z,92.37
2022-08-22T21:45:06.868Z,92.43
2022-08-22T21:47:41.961Z,92.11
2022-08-22T21:50:19.490Z,92.21
2022-08-22T21:52:55.688Z,92.55
2022-08-22T21:55:46.734Z,92.38
2022-08-22T21:58:34.915Z,92.38
2022-08-22T22:01:27.375Z,92.49
2022-08-22T22:03:54.241Z,92.24
2022-08-22T22:06:21.204Z,91.95
2022-08-22T22:08:49.116Z,92.06
2022-08-22T22:11:16.690Z,92.07
2022-08-22T22:13:44.173Z,92.16
2022-08-22T22:16:12.666Z,92.26
2022-08-22T22:18:39.520Z,91.73
2022-08-22T22:21:06.795Z,92.30
2022-08-22T22:23:33.510Z,92.15
2022-08-22T22:26:03.387Z,92.11
2022-08-22T22:28:38.613Z,92.29
2022-08-22T22:31:06.310Z,91.98
2022-08-22T22:33:35.687Z,92.08
2022-08-22T22:36:18.779Z,92.26
2022-08-22T22:38:45.939Z,91.89
2022-08-22T22:41:13.113Z,92.19
2022-08-22T22:43:40.737Z,92.06
2022-08-22T22:46:08.573Z,92.45
2022-08-22T22:48:35.640Z,92.35
2022-08-22T22:51:10.267Z,92.26
2022-08-22T22:53:43.242Z,92.41
2022-08-22T22:56:13.634Z,92.43
2022-08-22T22:58:41.192Z,92.38
2022-08-22T23:01:15.980Z,92.80
2022-08-22T23:03:43.898Z,92.58
2022-08-22T23:06:21.567Z,92.51
2022-08-22T23:08:50.156Z,92.38
2022-08-22T23:11:21.415Z,92.61
2022-08-22T23:13:49.876Z,92.41
2022-08-22T23:16:19.274Z,92.36
2022-08-22T23:18:48.350Z,92.13
2022-08-22T23:21:22.114Z,92.33
2022-08-22T23:23:51.592Z,92.45
2022-08-22T23:26:18.646Z,92.03
2022-08-22T23:28:45.706Z,92.29
2022-08-22T23:31:19.288Z,92.05
2022-08-22T23:33:50.149Z,92.25
2022-08-22T23:36:19.042Z,92.34
2022-08-22T23:38:46.294Z,92.33
2022-08-22T23:41:14.122Z,92.17
2022-08-22T23:43:42.799Z,92.08
2022-08-22T23:46:12.058Z,92.04
2022-08-22T23:48:40.209Z,91.93
2022-08-22T23:51:07.810Z,92.25
2022-08-22T23:53:34.668Z,92.03
2022-08-22T23:56:22.868Z,92.19
2022-08-22T23:58:50.133Z,92.32
